Portada
METAR-TAF:

METAR-TAF

Aeroports :

Ely Airport (Yelland Field)

Ely, Nevada, Estats Units d'Amèrica

latitud: 39-17-42N, longitud: 114-50-43W, altitud: 1907 m

Observació

L'informe es va fer fa 41 minuts, a les 16:53 UTC
Vent 9 kt del Sud
Temperatura 2°C
Humitat 29%
Pressió 1031 hPa
Visibilitat: 16.1 km
Cel clar

METAR: KELY 261653Z AUTO 18009KT 10SM CLR 02/M14 A3046 RMK AO2 SLP328 T00221139 $

Hora: 09:34 (17:34 UTC)

Pronòstic

L'informe es va fer fa 6 hores i 4 minuts, a les 11:30 UTC
Pronòstic vàlid del 26 a les 12 UTC al 27 a les 12 UTC
Vent 8 kt del Sud
Visibilitat: 10 km
Escasses núvols a una alçada de 20000 ft
A partir de les 26 a les 1800 UTC
Vent 6 kt amb direcció variable
Visibilitat: 10 km
Cel clar
A partir de les 27 a les 0300 UTC
Vent 8 kt del Sud
Visibilitat: 10 km
Cel clar

TAF: KELY 261130Z 2612/2712 18008KT P6SM FEW200 FM261800 VRB06KT P6SM SKC FM270300 18008KT P6SM SKC

Observacions i pronòstics meteorològics de més de 4000 aeroports (METAR i TAF).

Les estacions disponibles són els punts grocs i vermells al mapa.

Posi el ratolí al punt desitjat per veure el nom de l'estació.

Feu clic per veure les observacions i els pronòstics meteorològics.

Per canviar el mapa: feu clic els botons verds amb una creu de color negre per apropar; al botó verd amb un guió per allunyar la imatge; o en les fletxes verdes per a mapes adjacents.


METAR-TAF: